TOM82B EHAM-EGLL
Flight info
| Callsign | TOM82B |
|---|---|
| Flight time | N/A |
| Altitude | 24000 |
| Route | IDRID L980 LOGAN |
| Aircraft | B738/M-SDE2E3FGHIRWXY/LB1 |
Departure
| Time | 2026-05-07 12:50 |
|---|---|
| Airport | Amsterdam Airport Schiphol (EHAM) |
Arrival
| Time | N/A |
|---|---|
| Airport | London Heathrow Airport (EGLL) |
| Time | Latitude | Longitude | Altitude | Speed | Heading |
|---|---|---|---|---|---|
| 2026-05-07 12:18 | 52.31154 | 4.77262 | -3 ft | 0 kts | 4° |
| 2026-05-07 12:36 | 52.31144 | 4.77261 | -3 ft | 2 kts | 2° |
| 2026-05-07 12:36 | 52.31127 | 4.77260 | -3 ft | 2 kts | 2° |
| 2026-05-07 12:36 | 52.31111 | 4.77259 | -3 ft | 2 kts | 2° |
| 2026-05-07 12:36 | 52.31095 | 4.77259 | -3 ft | 2 kts | 348° |
| 2026-05-07 12:37 | 52.31080 | 4.77269 | -3 ft | 2 kts | 309° |
| 2026-05-07 12:37 | 52.31074 | 4.77285 | -3 ft | 1 kts | 278° |
| 2026-05-07 12:37 | 52.31073 | 4.77294 | -3 ft | 0 kts | 275° |
| 2026-05-07 12:41 | 52.31074 | 4.77287 | -3 ft | 4 kts | 275° |
| 2026-05-07 12:41 | 52.31076 | 4.77225 | -3 ft | 6 kts | 273° |
| 2026-05-07 12:41 | 52.31078 | 4.77159 | -3 ft | 6 kts | 271° |
| 2026-05-07 12:42 | 52.31078 | 4.77147 | -3 ft | 0 kts | 274° |
| 2026-05-07 12:42 | 52.31081 | 4.77095 | -3 ft | 4 kts | 275° |
| 2026-05-07 12:42 | 52.31084 | 4.77026 | -3 ft | 7 kts | 273° |
| 2026-05-07 12:42 | 52.31099 | 4.76959 | -3 ft | 6 kts | 313° |
| 2026-05-07 12:43 | 52.31141 | 4.76940 | -3 ft | 6 kts | 9° |
| 2026-05-07 12:43 | 52.31181 | 4.76965 | -3 ft | 6 kts | 25° |
| 2026-05-07 12:43 | 52.31237 | 4.77027 | -3 ft | 14 kts | 33° |
| 2026-05-07 12:43 | 52.31318 | 4.77110 | -3 ft | 13 kts | 30° |
| 2026-05-07 12:44 | 52.31397 | 4.77181 | -3 ft | 13 kts | 22° |
| 2026-05-07 12:44 | 52.31486 | 4.77196 | -3 ft | 13 kts | 3° |
| 2026-05-07 12:44 | 52.31560 | 4.77156 | -4 ft | 12 kts | 294° |
| 2026-05-07 12:44 | 52.31565 | 4.77018 | -4 ft | 12 kts | 269° |
| 2026-05-07 12:45 | 52.31561 | 4.76884 | -3 ft | 12 kts | 266° |
| 2026-05-07 12:45 | 52.31555 | 4.76753 | -3 ft | 11 kts | 266° |
| 2026-05-07 12:45 | 52.31551 | 4.76582 | -3 ft | 19 kts | 268° |
| 2026-05-07 12:45 | 52.31544 | 4.76367 | -3 ft | 19 kts | 266° |
| 2026-05-07 12:46 | 52.31536 | 4.76159 | -3 ft | 18 kts | 268° |
| 2026-05-07 12:46 | 52.31531 | 4.75958 | -3 ft | 17 kts | 266° |
| 2026-05-07 12:46 | 52.31524 | 4.75764 | -3 ft | 17 kts | 267° |
| 2026-05-07 12:46 | 52.31517 | 4.75578 | -3 ft | 16 kts | 268° |
| 2026-05-07 12:47 | 52.31510 | 4.75401 | -4 ft | 16 kts | 266° |
| 2026-05-07 12:47 | 52.31503 | 4.75160 | -4 ft | 27 kts | 266° |
| 2026-05-07 12:47 | 52.31493 | 4.74864 | -3 ft | 21 kts | 268° |
| 2026-05-07 12:47 | 52.31512 | 4.74690 | -3 ft | 16 kts | 322° |
| 2026-05-07 12:48 | 52.31617 | 4.74661 | -3 ft | 15 kts | 8° |
| 2026-05-07 12:48 | 52.31671 | 4.74784 | -3 ft | 15 kts | 91° |
| 2026-05-07 12:48 | 52.31672 | 4.74844 | -4 ft | 0 kts | 88° |
| 2026-05-07 12:49 | 52.31672 | 4.74845 | -4 ft | 1 kts | 87° |
| 2026-05-07 12:49 | 52.31687 | 4.75296 | -5 ft | 84 kts | 86° |
| 2026-05-07 12:50 | 52.31734 | 4.76689 | -2 ft | 159 kts | 87° |
| 2026-05-07 12:50 | 52.31801 | 4.78714 | 539 ft | 186 kts | 85° |
| 2026-05-07 12:50 | 52.31856 | 4.80781 | 1862 ft | 181 kts | 90° |
| 2026-05-07 12:50 | 52.31424 | 4.82799 | 2445 ft | 210 kts | 130° |
| 2026-05-07 12:51 | 52.30091 | 4.83957 | 2754 ft | 234 kts | 174° |
| 2026-05-07 12:51 | 52.28480 | 4.83395 | 2997 ft | 240 kts | 212° |
| 2026-05-07 12:51 | 52.27139 | 4.81749 | 3273 ft | 243 kts | 219° |
| 2026-05-07 12:51 | 52.25784 | 4.80113 | 3548 ft | 249 kts | 216° |
| 2026-05-07 12:52 | 52.24364 | 4.78485 | 3775 ft | 250 kts | 216° |
| 2026-05-07 12:52 | 52.22954 | 4.76859 | 4015 ft | 246 kts | 216° |
| 2026-05-07 12:52 | 52.21564 | 4.75260 | 4256 ft | 243 kts | 215° |
| 2026-05-07 12:52 | 52.20180 | 4.73672 | 4497 ft | 244 kts | 216° |
| 2026-05-07 12:53 | 52.18788 | 4.72066 | 4754 ft | 248 kts | 215° |
| 2026-05-07 12:53 | 52.17422 | 4.70244 | 5512 ft | 254 kts | 230° |
| 2026-05-07 12:53 | 52.16718 | 4.67740 | 6898 ft | 241 kts | 265° |
| 2026-05-07 12:53 | 52.17044 | 4.65121 | 8031 ft | 241 kts | 301° |
| 2026-05-07 12:54 | 52.18195 | 4.63178 | 8988 ft | 245 kts | 321° |
| 2026-05-07 12:54 | 52.19547 | 4.61430 | 9889 ft | 253 kts | 318° |
| 2026-05-07 12:54 | 52.20792 | 4.59386 | 10762 ft | 254 kts | 308° |
| 2026-05-07 12:54 | 52.21817 | 4.57046 | 11704 ft | 254 kts | 301° |
| 2026-05-07 12:55 | 52.22711 | 4.54527 | 12532 ft | 259 kts | 297° |
| 2026-05-07 12:55 | 52.23521 | 4.51866 | 12950 ft | 262 kts | 294° |
| 2026-05-07 12:55 | 52.24244 | 4.49167 | 13094 ft | 261 kts | 292° |
| 2026-05-07 12:55 | 52.24916 | 4.46410 | 13358 ft | 256 kts | 290° |
| 2026-05-07 12:56 | 52.25537 | 4.43702 | 14000 ft | 265 kts | 290° |
| 2026-05-07 12:56 | 52.26173 | 4.40814 | 14543 ft | 275 kts | 289° |
| 2026-05-07 12:56 | 52.26817 | 4.37818 | 15099 ft | 285 kts | 289° |
| 2026-05-07 12:56 | 52.27475 | 4.34705 | 15674 ft | 294 kts | 288° |
| 2026-05-07 12:57 | 52.28144 | 4.31502 | 16249 ft | 303 kts | 288° |
| 2026-05-07 12:57 | 52.28829 | 4.28201 | 16840 ft | 310 kts | 288° |
| 2026-05-07 12:57 | 52.29527 | 4.24821 | 17426 ft | 317 kts | 288° |
| 2026-05-07 12:57 | 52.30237 | 4.21374 | 18041 ft | 323 kts | 288° |
| 2026-05-07 12:58 | 52.30779 | 4.17784 | 18520 ft | 331 kts | 270° |
| 2026-05-07 12:58 | 52.30254 | 4.14196 | 19120 ft | 328 kts | 246° |
| 2026-05-07 12:58 | 52.29249 | 4.10832 | 19660 ft | 334 kts | 240° |
| 2026-05-07 12:58 | 52.27972 | 4.07652 | 20259 ft | 335 kts | 234° |
| 2026-05-07 12:59 | 52.26540 | 4.04637 | 20807 ft | 338 kts | 231° |
| 2026-05-07 12:59 | 52.25031 | 4.01682 | 21377 ft | 340 kts | 230° |
| 2026-05-07 12:59 | 52.23508 | 3.98717 | 21953 ft | 341 kts | 230° |
| 2026-05-07 12:59 | 52.22002 | 3.95732 | 22541 ft | 341 kts | 231° |
| 2026-05-07 13:00 | 52.20512 | 3.92725 | 23146 ft | 341 kts | 231° |
| 2026-05-07 13:00 | 52.19055 | 3.89744 | 23733 ft | 340 kts | 231° |
| 2026-05-07 13:00 | 52.17588 | 3.86718 | 24103 ft | 344 kts | 232° |
| 2026-05-07 13:00 | 52.16072 | 3.83579 | 24063 ft | 361 kts | 232° |
| 2026-05-07 13:01 | 52.14493 | 3.80306 | 24100 ft | 374 kts | 232° |
| 2026-05-07 13:01 | 52.12857 | 3.76913 | 24113 ft | 387 kts | 232° |
| 2026-05-07 13:01 | 52.11168 | 3.73414 | 24098 ft | 400 kts | 232° |
| 2026-05-07 13:01 | 52.09424 | 3.69807 | 24121 ft | 410 kts | 232° |
| 2026-05-07 13:02 | 52.07648 | 3.66141 | 24092 ft | 416 kts | 232° |
| 2026-05-07 13:02 | 52.05862 | 3.62458 | 24103 ft | 414 kts | 232° |
| 2026-05-07 13:02 | 52.04080 | 3.58789 | 24100 ft | 413 kts | 232° |
| 2026-05-07 13:02 | 52.02325 | 3.55180 | 24091 ft | 413 kts | 232° |
| 2026-05-07 13:03 | 52.00546 | 3.51529 | 24095 ft | 412 kts | 232° |
| 2026-05-07 13:03 | 51.98772 | 3.47890 | 24097 ft | 412 kts | 232° |
| 2026-05-07 13:03 | 51.96989 | 3.44234 | 24095 ft | 412 kts | 232° |
| 2026-05-07 13:03 | 51.95213 | 3.40599 | 24095 ft | 412 kts | 232° |
| 2026-05-07 13:04 | 51.93432 | 3.36957 | 24096 ft | 412 kts | 232° |
| 2026-05-07 13:04 | 51.91647 | 3.33312 | 24095 ft | 413 kts | 232° |
| 2026-05-07 13:04 | 51.89887 | 3.29718 | 24091 ft | 413 kts | 232° |
| 2026-05-07 13:04 | 51.88102 | 3.26076 | 24096 ft | 413 kts | 232° |
| 2026-05-07 13:05 | 51.86319 | 3.22441 | 24088 ft | 413 kts | 232° |
| 2026-05-07 13:05 | 51.84531 | 3.18797 | 24091 ft | 413 kts | 232° |
| 2026-05-07 13:05 | 51.82744 | 3.15158 | 24088 ft | 413 kts | 232° |
| 2026-05-07 13:05 | 51.80959 | 3.11526 | 24088 ft | 413 kts | 232° |
| 2026-05-07 13:06 | 51.79175 | 3.07896 | 24089 ft | 413 kts | 232° |
| 2026-05-07 13:06 | 51.77393 | 3.04273 | 24087 ft | 412 kts | 232° |
| 2026-05-07 13:06 | 51.75610 | 3.00647 | 24086 ft | 412 kts | 232° |
| 2026-05-07 13:06 | 51.73823 | 2.97019 | 24087 ft | 413 kts | 232° |
| 2026-05-07 13:07 | 51.72068 | 2.93455 | 24087 ft | 410 kts | 232° |
| 2026-05-07 13:07 | 51.70325 | 2.89923 | 24065 ft | 394 kts | 232° |
| 2026-05-07 13:07 | 51.68656 | 2.86544 | 24066 ft | 377 kts | 232° |
| 2026-05-07 13:07 | 51.67058 | 2.83309 | 24062 ft | 362 kts | 232° |